sensor_id;sensor_type;location;lat;lon;timestamp;pressure;altitude;pressure_sealevel;temperature;humidity
76973;BME280;65907;53.640;10.050;2023-07-30T00:01:59;100178.56;;;25.52;42.92
76973;BME280;65907;53.640;10.050;2023-07-30T00:04:27;100175.94;;;25.52;43.00
76973;BME280;65907;53.640;10.050;2023-07-30T00:06:52;100178.84;;;25.57;43.06
76973;BME280;65907;53.640;10.050;2023-07-30T00:09:17;100184.13;;;25.57;42.62
76973;BME280;65907;53.640;10.050;2023-07-30T00:11:43;100189.38;;;25.57;42.95
76973;BME280;65907;53.640;10.050;2023-07-30T00:14:08;100192.03;;;25.57;42.93
76973;BME280;65907;53.640;10.050;2023-07-30T00:16:33;100184.31;;;25.56;42.94
76973;BME280;65907;53.640;10.050;2023-07-30T00:18:58;100178.41;;;25.54;42.87
76973;BME280;65907;53.640;10.050;2023-07-30T00:21:26;100186.28;;;25.54;42.88
76973;BME280;65907;53.640;10.050;2023-07-30T00:23:51;100178.91;;;25.49;42.99
76973;BME280;65907;53.640;10.050;2023-07-30T00:26:18;100188.59;;;25.48;43.06
76973;BME280;65907;53.640;10.050;2023-07-30T00:28:43;100184.16;;;25.49;43.13
76973;BME280;65907;53.640;10.050;2023-07-30T00:31:09;100188.75;;;25.55;42.87
76973;BME280;65907;53.640;10.050;2023-07-30T00:33:34;100178.84;;;25.57;42.78
76973;BME280;65907;53.640;10.050;2023-07-30T00:35:59;100176.56;;;25.62;42.53
76973;BME280;65907;53.640;10.050;2023-07-30T00:38:24;100182.63;;;25.63;42.54
76973;BME280;65907;53.640;10.050;2023-07-30T00:40:50;100184.44;;;25.62;42.70
76973;BME280;65907;53.640;10.050;2023-07-30T00:43:15;100185.75;;;25.67;42.79
76973;BME280;65907;53.640;10.050;2023-07-30T00:45:41;100186.59;;;25.59;42.89
76973;BME280;65907;53.640;10.050;2023-07-30T00:48:07;100197.13;;;25.59;42.72
76973;BME280;65907;53.640;10.050;2023-07-30T00:50:33;100191.22;;;25.57;42.87
76973;BME280;65907;53.640;10.050;2023-07-30T00:52:58;100190.88;;;25.60;42.95
76973;BME280;65907;53.640;10.050;2023-07-30T00:55:24;100201.25;;;25.61;42.77
76973;BME280;65907;53.640;10.050;2023-07-30T00:57:49;100202.22;;;25.60;42.68
76973;BME280;65907;53.640;10.050;2023-07-30T01:00:15;100198.81;;;25.52;43.03
76973;BME280;65907;53.640;10.050;2023-07-30T01:02:40;100209.78;;;25.55;43.03
76973;BME280;65907;53.640;10.050;2023-07-30T01:05:05;100211.97;;;25.52;42.81
76973;BME280;65907;53.640;10.050;2023-07-30T01:07:31;100209.78;;;25.55;42.97
76973;BME280;65907;53.640;10.050;2023-07-30T01:09:57;100210.63;;;25.56;42.70
76973;BME280;65907;53.640;10.050;2023-07-30T01:12:22;100208.50;;;25.51;43.06
76973;BME280;65907;53.640;10.050;2023-07-30T01:14:48;100214.06;;;25.56;42.91
76973;BME280;65907;53.640;10.050;2023-07-30T01:17:14;100213.06;;;25.57;42.74
76973;BME280;65907;53.640;10.050;2023-07-30T01:19:40;100221.63;;;25.59;42.80
76973;BME280;65907;53.640;10.050;2023-07-30T01:22:05;100230.19;;;25.61;42.75
76973;BME280;65907;53.640;10.050;2023-07-30T01:24:31;100222.81;;;25.57;42.58
76973;BME280;65907;53.640;10.050;2023-07-30T01:27:01;100232.16;;;25.59;42.88
76973;BME280;65907;53.640;10.050;2023-07-30T01:29:45;100232.34;;;25.58;42.89
76973;BME280;65907;53.640;10.050;2023-07-30T01:32:14;100231.19;;;25.60;42.63
76973;BME280;65907;53.640;10.050;2023-07-30T01:34:40;100234.97;;;25.58;42.70
76973;BME280;65907;53.640;10.050;2023-07-30T01:37:06;100230.34;;;25.60;42.60
76973;BME280;65907;53.640;10.050;2023-07-30T01:39:33;100235.97;;;25.57;42.86
76973;BME280;65907;53.640;10.050;2023-07-30T01:42:02;100234.66;;;25.53;43.03
76973;BME280;65907;53.640;10.050;2023-07-30T01:44:27;100233.69;;;25.54;42.98
76973;BME280;65907;53.640;10.050;2023-07-30T01:46:52;100233.50;;;25.55;43.03
76973;BME280;65907;53.640;10.050;2023-07-30T01:49:17;100239.75;;;25.54;43.04
76973;BME280;65907;53.640;10.050;2023-07-30T01:51:42;100241.38;;;25.55;42.92
76973;BME280;65907;53.640;10.050;2023-07-30T01:54:08;100242.38;;;25.54;42.73
76973;BME280;65907;53.640;10.050;2023-07-30T01:56:33;100238.09;;;25.53;42.94
76973;BME280;65907;53.640;10.050;2023-07-30T01:58:58;100244.66;;;25.57;42.68
76973;BME280;65907;53.640;10.050;2023-07-30T02:01:23;100246.31;;;25.58;42.75
76973;BME280;65907;53.640;10.050;2023-07-30T02:03:51;100246.50;;;25.57;42.95
76973;BME280;65907;53.640;10.050;2023-07-30T02:06:21;100255.19;;;25.57;42.79
76973;BME280;65907;53.640;10.050;2023-07-30T02:08:49;100249.94;;;25.57;42.70
76973;BME280;65907;53.640;10.050;2023-07-30T02:11:14;100245.66;;;25.56;42.81
76973;BME280;65907;53.640;10.050;2023-07-30T02:13:42;100245.66;;;25.56;42.92
76973;BME280;65907;53.640;10.050;2023-07-30T02:16:07;100245.50;;;25.58;42.67
76973;BME280;65907;53.640;10.050;2023-07-30T02:18:32;100246.31;;;25.58;42.71
76973;BME280;65907;53.640;10.050;2023-07-30T02:20:58;100246.31;;;25.58;42.78
76973;BME280;65907;53.640;10.050;2023-07-30T02:23:23;100248.94;;;25.58;42.72
76973;BME280;65907;53.640;10.050;2023-07-30T02:25:51;100248.63;;;25.61;42.64
76973;BME280;65907;53.640;10.050;2023-07-30T02:28:16;100242.38;;;25.54;42.79
76973;BME280;65907;53.640;10.050;2023-07-30T02:30:42;100250.28;;;25.54;43.04
76973;BME280;65907;53.640;10.050;2023-07-30T02:33:07;100256.03;;;25.58;42.68
76973;BME280;65907;53.640;10.050;2023-07-30T02:35:32;100250.28;;;25.54;42.96
76973;BME280;65907;53.640;10.050;2023-07-30T02:37:57;100245.66;;;25.56;42.68
76973;BME280;65907;53.640;10.050;2023-07-30T02:40:22;100245.50;;;25.58;42.69
76973;BME280;65907;53.640;10.050;2023-07-30T02:42:48;100255.53;;;25.54;43.06
76973;BME280;65907;53.640;10.050;2023-07-30T02:45:13;100254.75;;;25.54;42.82
76973;BME280;65907;53.640;10.050;2023-07-30T02:47:38;100259.16;;;25.53;42.77
76973;BME280;65907;53.640;10.050;2023-07-30T02:50:04;100255.53;;;25.54;42.76
76973;BME280;65907;53.640;10.050;2023-07-30T02:52:29;100257.19;;;25.55;42.75
76973;BME280;65907;53.640;10.050;2023-07-30T02:54:54;100259.66;;;25.57;42.68
76973;BME280;65907;53.640;10.050;2023-07-30T02:57:20;100255.53;;;25.54;42.76
76973;BME280;65907;53.640;10.050;2023-07-30T02:59:45;100264.78;;;25.50;42.94
76973;BME280;65907;53.640;10.050;2023-07-30T03:02:10;100258.53;;;25.51;43.10
76973;BME280;65907;53.640;10.050;2023-07-30T03:04:35;100264.94;;;25.57;42.81
76973;BME280;65907;53.640;10.050;2023-07-30T03:07:01;100262.97;;;25.51;42.92
76973;BME280;65907;53.640;10.050;2023-07-30T03:09:26;100270.53;;;25.54;42.88
76973;BME280;65907;53.640;10.050;2023-07-30T03:11:52;100266.25;;;25.53;42.84
76973;BME280;65907;53.640;10.050;2023-07-30T03:14:20;100263.78;;;25.51;42.76
76973;BME280;65907;53.640;10.050;2023-07-30T03:16:49;100268.88;;;25.53;42.66
76973;BME280;65907;53.640;10.050;2023-07-30T03:19:14;100275.63;;;25.55;42.75
76973;BME280;65907;53.640;10.050;2023-07-30T03:21:42;100269.88;;;25.52;42.83
76973;BME280;65907;53.640;10.050;2023-07-30T03:24:07;100271.53;;;25.53;42.84
76973;BME280;65907;53.640;10.050;2023-07-30T03:26:32;100268.06;;;25.52;42.67
76973;BME280;65907;53.640;10.050;2023-07-30T03:28:58;100278.44;;;25.54;42.59
76973;BME280;65907;53.640;10.050;2023-07-30T03:31:23;100278.25;;;25.55;42.76
76973;BME280;65907;53.640;10.050;2023-07-30T03:33:50;100273.81;;;25.56;42.86
76973;BME280;65907;53.640;10.050;2023-07-30T03:36:16;100274.16;;;25.53;42.82
76973;BME280;65907;53.640;10.050;2023-07-30T03:38:42;100265.91;;;25.56;42.78
76973;BME280;65907;53.640;10.050;2023-07-30T03:41:07;100271.34;;;25.54;42.92
76973;BME280;65907;53.640;10.050;2023-07-30T03:43:33;100272.66;;;25.50;42.82
76973;BME280;65907;53.640;10.050;2023-07-30T03:45:58;100274.16;;;25.53;42.75
76973;BME280;65907;53.640;10.050;2023-07-30T03:48:25;100272.97;;;25.55;42.61
76973;BME280;65907;53.640;10.050;2023-07-30T03:50:51;100278.91;;;25.57;42.73
76973;BME280;65907;53.640;10.050;2023-07-30T03:53:17;100280.72;;;25.57;42.55
76973;BME280;65907;53.640;10.050;2023-07-30T03:55:42;100279.53;;;25.59;42.60
76973;BME280;65907;53.640;10.050;2023-07-30T03:58:08;100282.53;;;25.56;42.50
76973;BME280;65907;53.640;10.050;2023-07-30T04:00:33;100282.84;;;25.53;42.85
76973;BME280;65907;53.640;10.050;2023-07-30T04:02:58;100281.06;;;25.54;42.50
76973;BME280;65907;53.640;10.050;2023-07-30T04:05:26;100282.84;;;25.53;42.63
76973;BME280;65907;53.640;10.050;2023-07-30T04:07:54;100288.44;;;25.58;42.69
76973;BME280;65907;53.640;10.050;2023-07-30T04:10:24;100291.25;;;25.57;42.62
76973;BME280;65907;53.640;10.050;2023-07-30T04:12:49;100283.69;;;25.54;42.87
76973;BME280;65907;53.640;10.050;2023-07-30T04:15:15;100288.78;;;25.55;42.77
76973;BME280;65907;53.640;10.050;2023-07-30T04:17:40;100291.25;;;25.57;42.72
76973;BME280;65907;53.640;10.050;2023-07-30T04:20:06;100295.03;;;25.62;42.52
76973;BME280;65907;53.640;10.050;2023-07-30T04:22:31;100293.53;;;25.60;42.75
76973;BME280;65907;53.640;10.050;2023-07-30T04:24:57;100292.06;;;25.57;42.74
76973;BME280;65907;53.640;10.050;2023-07-30T04:27:22;100292.41;;;25.54;42.71
76973;BME280;65907;53.640;10.050;2023-07-30T04:29:47;100291.59;;;25.54;42.81
76973;BME280;65907;53.640;10.050;2023-07-30T04:32:15;100300.94;;;25.56;42.78
76973;BME280;65907;53.640;10.050;2023-07-30T04:34:40;100294.03;;;25.55;42.86
76973;BME280;65907;53.640;10.050;2023-07-30T04:37:05;100291.75;;;25.60;42.68
76973;BME280;65907;53.640;10.050;2023-07-30T04:39:34;100293.88;;;25.57;42.63
76973;BME280;65907;53.640;10.050;2023-07-30T04:41:59;100293.88;;;25.57;42.62
76973;BME280;65907;53.640;10.050;2023-07-30T04:44:25;100286.97;;;25.56;42.65
76973;BME280;65907;53.640;10.050;2023-07-30T04:46:50;100301.44;;;25.60;42.61
76973;BME280;65907;53.640;10.050;2023-07-30T04:49:18;100301.75;;;25.65;42.51
76973;BME280;65907;53.640;10.050;2023-07-30T04:51:43;100301.59;;;25.67;42.48
76973;BME280;65907;53.640;10.050;2023-07-30T04:54:09;100302.34;;;25.84;42.12
76973;BME280;65907;53.640;10.050;2023-07-30T04:56:34;100303.84;;;26.18;41.49
76973;BME280;65907;53.640;10.050;2023-07-30T04:59:00;100299.84;;;26.30;40.93
76973;BME280;65907;53.640;10.050;2023-07-30T05:01:28;100299.91;;;26.45;40.58
76973;BME280;65907;53.640;10.050;2023-07-30T05:03:53;100295.97;;;26.41;41.00
76973;BME280;65907;53.640;10.050;2023-07-30T05:06:18;100295.22;;;26.32;41.33
76973;BME280;65907;53.640;10.050;2023-07-30T05:08:43;100296.06;;;26.25;41.28
76973;BME280;65907;53.640;10.050;2023-07-30T05:11:09;100298.16;;;25.98;42.14
76973;BME280;65907;53.640;10.050;2023-07-30T05:13:34;100300.09;;;26.04;42.09
76973;BME280;65907;53.640;10.050;2023-07-30T05:15:59;100299.06;;;26.22;41.71
76973;BME280;65907;53.640;10.050;2023-07-30T05:18:24;100298.00;;;25.99;42.21
76973;BME280;65907;53.640;10.050;2023-07-30T05:20:50;100299.34;;;25.95;42.28
76973;BME280;65907;53.640;10.050;2023-07-30T05:23:15;100302.81;;;25.87;42.32
76973;BME280;65907;53.640;10.050;2023-07-30T05:25:40;100302.78;;;25.96;42.05
76973;BME280;65907;53.640;10.050;2023-07-30T05:28:05;100303.69;;;26.19;41.75
76973;BME280;65907;53.640;10.050;2023-07-30T05:30:31;100309.13;;;26.10;42.01
76973;BME280;65907;53.640;10.050;2023-07-30T05:32:56;100309.53;;;25.98;42.32
76973;BME280;65907;53.640;10.050;2023-07-30T05:35:21;100306.91;;;25.90;42.33
76973;BME280;65907;53.640;10.050;2023-07-30T05:37:46;100309.38;;;25.91;42.41
76973;BME280;65907;53.640;10.050;2023-07-30T05:40:11;100305.75;;;25.92;42.26
76973;BME280;65907;53.640;10.050;2023-07-30T05:42:39;100303.44;;;25.98;42.33
76973;BME280;65907;53.640;10.050;2023-07-30T05:45:04;100303.78;;;25.95;42.30
76973;BME280;65907;53.640;10.050;2023-07-30T05:47:30;100301.94;;;26.03;42.28
76973;BME280;65907;53.640;10.050;2023-07-30T05:49:55;100293.03;;;26.04;42.01
76973;BME280;65907;53.640;10.050;2023-07-30T05:52:20;100297.84;;;26.32;41.60
76973;BME280;65907;53.640;10.050;2023-07-30T05:54:48;100296.97;;;26.40;41.16
76973;BME280;65907;53.640;10.050;2023-07-30T05:57:15;100302.94;;;26.34;41.46
76973;BME280;65907;53.640;10.050;2023-07-30T05:59:40;100307.44;;;26.48;41.24
76973;BME280;65907;53.640;10.050;2023-07-30T06:02:05;100303.41;;;26.38;41.52
76973;BME280;65907;53.640;10.050;2023-07-30T06:04:32;100306.16;;;26.13;41.74
76973;BME280;65907;53.640;10.050;2023-07-30T06:06:59;100304.06;;;26.00;42.20
76973;BME280;65907;53.640;10.050;2023-07-30T06:09:24;100304.59;;;25.95;42.33
76973;BME280;65907;53.640;10.050;2023-07-30T06:11:49;100308.66;;;26.06;41.96
76973;BME280;65907;53.640;10.050;2023-07-30T06:14:15;100307.06;;;25.97;41.98
76973;BME280;65907;53.640;10.050;2023-07-30T06:16:40;100308.34;;;26.01;42.08
76973;BME280;65907;53.640;10.050;2023-07-30T06:19:05;100310.38;;;25.90;42.46
76973;BME280;65907;53.640;10.050;2023-07-30T06:21:30;100310.72;;;25.87;42.43
76973;BME280;65907;53.640;10.050;2023-07-30T06:23:56;100299.34;;;25.95;42.28
76973;BME280;65907;53.640;10.050;2023-07-30T06:26:23;100299.66;;;26.00;42.22
76973;BME280;65907;53.640;10.050;2023-07-30T06:28:48;100308.59;;;26.23;41.72
76973;BME280;65907;53.640;10.050;2023-07-30T06:31:14;100300.34;;;26.26;41.57
76973;BME280;65907;53.640;10.050;2023-07-30T06:33:39;100296.41;;;26.22;41.74
76973;BME280;65907;53.640;10.050;2023-07-30T06:36:04;100305.25;;;26.29;41.41
76973;BME280;65907;53.640;10.050;2023-07-30T06:38:29;100304.47;;;26.28;41.61
76973;BME280;65907;53.640;10.050;2023-07-30T06:40:54;100307.56;;;26.32;41.51
76973;BME280;65907;53.640;10.050;2023-07-30T06:43:22;100312.53;;;26.27;41.73
76973;BME280;65907;53.640;10.050;2023-07-30T06:45:47;100317.56;;;26.37;41.55
76973;BME280;65907;53.640;10.050;2023-07-30T06:48:12;100324.72;;;26.28;41.55
76973;BME280;65907;53.640;10.050;2023-07-30T06:50:43;100323.81;;;26.44;41.29
76973;BME280;65907;53.640;10.050;2023-07-30T06:53:08;100320.69;;;26.40;41.40
76973;BME280;65907;53.640;10.050;2023-07-30T06:55:33;100329.09;;;26.44;41.27
76973;BME280;65907;53.640;10.050;2023-07-30T06:57:58;100324.91;;;26.49;41.29
76973;BME280;65907;53.640;10.050;2023-07-30T07:00:24;100331.81;;;26.51;41.22
76973;BME280;65907;53.640;10.050;2023-07-30T07:02:49;100333.47;;;26.52;41.06
76973;BME280;65907;53.640;10.050;2023-07-30T07:05:14;100341.78;;;26.63;40.97
76973;BME280;65907;53.640;10.050;2023-07-30T07:07:40;100338.91;;;26.73;40.86
76973;BME280;65907;53.640;10.050;2023-07-30T07:10:05;100339.63;;;26.67;40.93
76973;BME280;65907;53.640;10.050;2023-07-30T07:12:30;100341.63;;;26.65;41.02
76973;BME280;65907;53.640;10.050;2023-07-30T07:14:56;100340.63;;;26.66;40.88
76973;BME280;65907;53.640;10.050;2023-07-30T07:17:23;100338.34;;;26.63;41.07
76973;BME280;65907;53.640;10.050;2023-07-30T07:19:48;100336.50;;;26.63;40.97
76973;BME280;65907;53.640;10.050;2023-07-30T07:22:13;100343.34;;;26.58;41.14
76973;BME280;65907;53.640;10.050;2023-07-30T07:24:39;100340.69;;;26.58;41.17
76973;BME280;65907;53.640;10.050;2023-07-30T07:27:04;100341.22;;;26.53;41.16
76973;BME280;65907;53.640;10.050;2023-07-30T07:29:29;100353.47;;;26.46;41.68
76973;BME280;65907;53.640;10.050;2023-07-30T07:31:55;100351.47;;;26.48;41.15
76973;BME280;65907;53.640;10.050;2023-07-30T07:34:20;100353.91;;;26.49;41.36
76973;BME280;65907;53.640;10.050;2023-07-30T07:36:46;100360.81;;;26.51;41.45
76973;BME280;65907;53.640;10.050;2023-07-30T07:39:11;100350.59;;;26.56;41.26
76973;BME280;65907;53.640;10.050;2023-07-30T07:41:37;100347.06;;;26.63;41.06
76973;BME280;65907;53.640;10.050;2023-07-30T07:44:03;100345.84;;;26.74;40.73
76973;BME280;65907;53.640;10.050;2023-07-30T07:46:30;100347.81;;;26.72;40.79
76973;BME280;65907;53.640;10.050;2023-07-30T07:48:58;100340.47;;;26.68;40.89
76973;BME280;65907;53.640;10.050;2023-07-30T07:51:23;100336.28;;;26.73;40.92
76973;BME280;65907;53.640;10.050;2023-07-30T07:53:48;100340.75;;;26.73;40.71
76973;BME280;65907;53.640;10.050;2023-07-30T07:56:13;100336.47;;;26.72;41.00
76973;BME280;65907;53.640;10.050;2023-07-30T07:58:39;100342.19;;;26.75;40.86
76973;BME280;65907;53.640;10.050;2023-07-30T08:01:04;100339.22;;;26.79;40.65
76973;BME280;65907;53.640;10.050;2023-07-30T08:03:29;100336.13;;;26.75;40.64
76973;BME280;65907;53.640;10.050;2023-07-30T08:05:55;100341.56;;;26.73;40.71
76973;BME280;65907;53.640;10.050;2023-07-30T08:08:20;100348.78;;;26.80;40.91
76973;BME280;65907;53.640;10.050;2023-07-30T08:10:48;100353.59;;;26.76;40.80
76973;BME280;65907;53.640;10.050;2023-07-30T08:13:14;100354.75;;;26.73;40.86
76973;BME280;65907;53.640;10.050;2023-07-30T08:15:39;100348.66;;;26.73;41.07
76973;BME280;65907;53.640;10.050;2023-07-30T08:18:04;100352.94;;;26.74;40.67
76973;BME280;65907;53.640;10.050;2023-07-30T08:20:29;100355.38;;;26.75;41.01
76973;BME280;65907;53.640;10.050;2023-07-30T08:22:55;100353.22;;;26.79;40.60
76973;BME280;65907;53.640;10.050;2023-07-30T08:25:20;100357.97;;;26.84;40.64
76973;BME280;65907;53.640;10.050;2023-07-30T08:27:45;100351.25;;;26.58;41.15
76973;BME280;65907;53.640;10.050;2023-07-30T08:30:13;100342.47;;;26.66;40.88
76973;BME280;65907;53.640;10.050;2023-07-30T08:32:38;100341.09;;;26.70;40.77
76973;BME280;65907;53.640;10.050;2023-07-30T08:35:04;100348.81;;;26.71;40.85
76973;BME280;65907;53.640;10.050;2023-07-30T08:37:29;100346.19;;;26.71;40.94
76973;BME280;65907;53.640;10.050;2023-07-30T08:39:55;100349.31;;;26.75;40.78
76973;BME280;65907;53.640;10.050;2023-07-30T08:42:20;100343.19;;;26.74;40.74
76973;BME280;65907;53.640;10.050;2023-07-30T08:44:45;100336.94;;;26.75;40.75
76973;BME280;65907;53.640;10.050;2023-07-30T08:47:10;100339.56;;;26.75;40.71
76973;BME280;65907;53.640;10.050;2023-07-30T08:49:36;100334.97;;;26.77;40.65
76973;BME280;65907;53.640;10.050;2023-07-30T08:52:03;100337.75;;;26.76;40.83
76973;BME280;65907;53.640;10.050;2023-07-30T08:54:32;100345.19;;;26.72;40.86
76973;BME280;65907;53.640;10.050;2023-07-30T08:56:58;100344.63;;;26.62;41.13
76973;BME280;65907;53.640;10.050;2023-07-30T08:59:24;100341.47;;;26.67;40.83
76973;BME280;65907;53.640;10.050;2023-07-30T09:01:50;100342.09;;;26.69;40.77
76973;BME280;65907;53.640;10.050;2023-07-30T09:04:17;100339.47;;;26.69;40.97
76973;BME280;65907;53.640;10.050;2023-07-30T09:06:48;100351.09;;;26.74;40.80
76973;BME280;65907;53.640;10.050;2023-07-30T09:09:16;100347.38;;;26.69;40.69
76973;BME280;65907;53.640;10.050;2023-07-30T09:11:41;100354.47;;;26.68;40.64
76973;BME280;65907;53.640;10.050;2023-07-30T09:14:07;100350.69;;;26.62;41.09
76973;BME280;65907;53.640;10.050;2023-07-30T09:16:33;100356.09;;;26.69;40.91
76973;BME280;65907;53.640;10.050;2023-07-30T09:18:58;100353.34;;;26.62;40.92
76973;BME280;65907;53.640;10.050;2023-07-30T09:21:33;100353.22;;;26.56;41.04
76973;BME280;65907;53.640;10.050;2023-07-30T09:24:01;100360.38;;;26.70;40.86
76973;BME280;65907;53.640;10.050;2023-07-30T09:26:31;100353.16;;;26.64;41.06
76973;BME280;65907;53.640;10.050;2023-07-30T09:28:56;100355.81;;;26.64;41.05
76973;BME280;65907;53.640;10.050;2023-07-30T09:31:21;100358.09;;;26.67;40.87
76973;BME280;65907;53.640;10.050;2023-07-30T09:33:49;100359.72;;;26.68;40.86
76973;BME280;65907;53.640;10.050;2023-07-30T09:36:14;100369.00;;;26.64;40.96
76973;BME280;65907;53.640;10.050;2023-07-30T09:38:41;100370.34;;;26.60;41.07
76973;BME280;65907;53.640;10.050;2023-07-30T09:41:09;100365.41;;;26.57;41.15
76973;BME280;65907;53.640;10.050;2023-07-30T09:43:36;100374.69;;;26.53;40.99
76973;BME280;65907;53.640;10.050;2023-07-30T09:46:07;100373.00;;;26.52;41.13
76973;BME280;65907;53.640;10.050;2023-07-30T09:48:33;100375.84;;;26.50;41.24
76973;BME280;65907;53.640;10.050;2023-07-30T09:51:00;100384.91;;;26.47;41.35
76973;BME280;65907;53.640;10.050;2023-07-30T09:53:28;100386.38;;;26.50;41.05
76973;BME280;65907;53.640;10.050;2023-07-30T09:55:54;100393.78;;;26.55;41.09
76973;BME280;65907;53.640;10.050;2023-07-30T09:58:20;100387.53;;;26.47;41.36
76973;BME280;65907;53.640;10.050;2023-07-30T10:00:45;100387.72;;;26.46;41.34
76973;BME280;65907;53.640;10.050;2023-07-30T10:03:11;100404.22;;;26.40;41.40
76973;BME280;65907;53.640;10.050;2023-07-30T10:05:37;100405.69;;;26.42;41.25
76973;BME280;65907;53.640;10.050;2023-07-30T10:08:05;100408.03;;;26.37;41.45
76973;BME280;65907;53.640;10.050;2023-07-30T10:10:34;100403.00;;;26.51;41.28
76973;BME280;65907;53.640;10.050;2023-07-30T10:13:03;100406.84;;;26.40;41.44
76973;BME280;65907;53.640;10.050;2023-07-30T10:15:33;100408.84;;;26.38;41.47
76973;BME280;65907;53.640;10.050;2023-07-30T10:17:58;100413.59;;;26.42;41.31
76973;BME280;65907;53.640;10.050;2023-07-30T10:20:34;100416.09;;;26.36;41.35
76973;BME280;65907;53.640;10.050;2023-07-30T10:23:05;100421.56;;;26.34;41.52
76973;BME280;65907;53.640;10.050;2023-07-30T10:25:44;100428.78;;;26.40;41.32
76973;BME280;65907;53.640;10.050;2023-07-30T10:28:22;100442.75;;;26.49;41.09
76973;BME280;65907;53.640;10.050;2023-07-30T10:31:01;100436.69;;;26.40;41.42
76973;BME280;65907;53.640;10.050;2023-07-30T10:36:10;100437.97;;;26.44;41.28
76973;BME280;65907;53.640;10.050;2023-07-30T10:38:36;100441.31;;;26.38;41.44
76973;BME280;65907;53.640;10.050;2023-07-30T10:43:27;100450.16;;;26.45;41.36
76973;BME280;65907;53.640;10.050;2023-07-30T10:45:52;100451.81;;;26.46;40.85
76973;BME280;65907;53.640;10.050;2023-07-30T10:48:18;100453.16;;;26.42;41.40
76973;BME280;65907;53.640;10.050;2023-07-30T10:50:43;100455.63;;;26.44;41.08
76973;BME280;65907;53.640;10.050;2023-07-30T10:53:15;100450.56;;;26.34;41.30
76973;BME280;65907;53.640;10.050;2023-07-30T10:55:43;100448.72;;;26.43;41.22
76973;BME280;65907;53.640;10.050;2023-07-30T10:58:08;100447.72;;;26.44;41.11
76973;BME280;65907;53.640;10.050;2023-07-30T11:00:35;100442.75;;;26.41;41.23
76973;BME280;65907;53.640;10.050;2023-07-30T11:03:00;100451.50;;;26.41;41.24
76973;BME280;65907;53.640;10.050;2023-07-30T11:05:25;100443.66;;;26.33;41.27
76973;BME280;65907;53.640;10.050;2023-07-30T11:07:51;100436.97;;;26.45;41.14
76973;BME280;65907;53.640;10.050;2023-07-30T11:10:16;100434.03;;;26.40;41.36
76973;BME280;65907;53.640;10.050;2023-07-30T11:12:41;100427.00;;;26.32;41.50
76973;BME280;65907;53.640;10.050;2023-07-30T11:15:07;100432.91;;;26.43;41.39
76973;BME280;65907;53.640;10.050;2023-07-30T11:17:32;100435.38;;;26.36;41.51
76973;BME280;65907;53.640;10.050;2023-07-30T11:20:00;100441.44;;;26.45;41.36
76973;BME280;65907;53.640;10.050;2023-07-30T11:22:29;100437.53;;;26.32;41.44
76973;BME280;65907;53.640;10.050;2023-07-30T11:24:55;100439.47;;;26.39;41.17
76973;BME280;65907;53.640;10.050;2023-07-30T11:27:23;100436.84;;;26.39;41.17
76973;BME280;65907;53.640;10.050;2023-07-30T11:29:54;100431.06;;;26.43;41.18
76973;BME280;65907;53.640;10.050;2023-07-30T11:32:19;100439.97;;;26.42;41.16
76973;BME280;65907;53.640;10.050;2023-07-30T11:34:45;100430.72;;;26.46;41.25
76973;BME280;65907;53.640;10.050;2023-07-30T11:37:10;100428.13;;;26.38;41.25
76973;BME280;65907;53.640;10.050;2023-07-30T11:39:35;100424.31;;;26.41;41.26
76973;BME280;65907;53.640;10.050;2023-07-30T11:42:01;100432.06;;;26.42;41.21
76973;BME280;65907;53.640;10.050;2023-07-30T11:44:34;100423.44;;;26.48;41.19
76973;BME280;65907;53.640;10.050;2023-07-30T11:46:59;100424.00;;;26.44;41.33
76973;BME280;65907;53.640;10.050;2023-07-30T11:49:24;100425.97;;;26.42;41.30
76973;BME280;65907;53.640;10.050;2023-07-30T11:51:49;100427.28;;;26.38;41.33
76973;BME280;65907;53.640;10.050;2023-07-30T11:54:20;100429.25;;;26.44;41.13
76973;BME280;65907;53.640;10.050;2023-07-30T11:56:45;100423.63;;;26.47;41.13
76973;BME280;65907;53.640;10.050;2023-07-30T11:59:11;100416.03;;;26.52;41.13
76973;BME280;65907;53.640;10.050;2023-07-30T12:01:36;100410.28;;;26.48;41.10
76973;BME280;65907;53.640;10.050;2023-07-30T12:04:05;100405.34;;;26.45;41.03
76973;BME280;65907;53.640;10.050;2023-07-30T12:06:47;100408.97;;;26.44;41.15
76973;BME280;65907;53.640;10.050;2023-07-30T12:09:16;100417.72;;;26.45;41.36
76973;BME280;65907;53.640;10.050;2023-07-30T12:14:10;100411.66;;;26.36;41.18
76973;BME280;65907;53.640;10.050;2023-07-30T12:16:35;100408.28;;;26.51;41.11
76973;BME280;65907;53.640;10.050;2023-07-30T12:19:00;100411.66;;;26.36;41.21
76973;BME280;65907;53.640;10.050;2023-07-30T12:21:28;100405.22;;;26.39;41.25
76973;BME280;65907;53.640;10.050;2023-07-30T12:23:53;100415.19;;;26.52;41.17
76973;BME280;65907;53.640;10.050;2023-07-30T12:26:18;100402.91;;;26.44;41.09
76973;BME280;65907;53.640;10.050;2023-07-30T12:28:46;100408.34;;;26.42;41.35
76973;BME280;65907;53.640;10.050;2023-07-30T12:31:12;100400.06;;;26.45;41.20
76973;BME280;65907;53.640;10.050;2023-07-30T12:33:37;100400.91;;;26.46;41.17
76973;BME280;65907;53.640;10.050;2023-07-30T12:36:02;100397.72;;;26.51;41.12
76973;BME280;65907;53.640;10.050;2023-07-30T12:38:30;100396.44;;;26.46;41.05
76973;BME280;65907;53.640;10.050;2023-07-30T12:40:55;100396.75;;;26.52;41.22
76973;BME280;65907;53.640;10.050;2023-07-30T12:43:23;100394.44;;;26.57;41.02